createdAt,value
2023-07-10T00:00:39.052Z,101962.47
2023-07-10T00:03:09.532Z,101962.47
2023-07-10T00:05:36.071Z,101973.16
2023-07-10T00:08:02.554Z,101949.22
2023-07-10T00:10:30.687Z,101967.75
2023-07-10T00:12:57.164Z,101964.22
2023-07-10T00:15:24.595Z,101970.47
2023-07-10T00:17:52.218Z,101969.56
2023-07-10T00:20:20.629Z,101977.59
2023-07-10T00:22:47.179Z,101972.25
2023-07-10T00:25:16.512Z,101974.91
2023-07-10T00:27:46.963Z,101973.09
2023-07-10T00:30:18.377Z,101973.09
2023-07-10T00:32:45.811Z,101972.16
2023-07-10T00:35:18.213Z,101980.19
2023-07-10T00:37:50.818Z,101980.97
2023-07-10T00:40:21.717Z,101981.81
2023-07-10T00:42:48.475Z,101972.91
2023-07-10T00:45:16.351Z,101968.41
2023-07-10T00:47:43.998Z,101977.31
2023-07-10T00:50:14.672Z,101979.97
2023-07-10T00:52:43.620Z,101979.06
2023-07-10T00:55:22.145Z,101978.19
2023-07-10T00:57:51.514Z,101979.91
2023-07-10T01:00:20.798Z,101996.03
2023-07-10T01:02:47.785Z,101984.47
2023-07-10T01:05:15.239Z,101980.06
2023-07-10T01:07:44.168Z,101980.16
2023-07-10T01:10:11.935Z,101973.97
2023-07-10T01:12:39.891Z,101955.34
2023-07-10T01:15:07.392Z,101960.75
2023-07-10T01:17:34.068Z,101971.50
2023-07-10T01:20:06.926Z,101973.31
2023-07-10T01:22:33.477Z,101973.25
2023-07-10T01:25:00.517Z,101980.34
2023-07-10T01:27:29.535Z,101966.97
2023-07-10T01:29:59.300Z,101967.88
2023-07-10T01:32:28.775Z,101959.88
2023-07-10T01:34:58.011Z,101968.84
2023-07-10T01:37:24.447Z,101987.66
2023-07-10T01:39:52.306Z,101985.91
2023-07-10T01:42:18.840Z,101986.00
2023-07-10T01:44:46.730Z,101987.03
2023-07-10T01:47:16.662Z,101988.03
2023-07-10T01:49:48.838Z,101999.66
2023-07-10T01:52:16.523Z,101988.09
2023-07-10T01:54:45.810Z,101981.94
2023-07-10T01:57:13.025Z,101997.13
2023-07-10T01:59:39.513Z,101989.06
2023-07-10T02:02:06.055Z,101988.19
2023-07-10T02:04:32.584Z,101985.56
2023-07-10T02:06:59.000Z,101985.59
2023-07-10T02:09:29.430Z,101985.66
2023-07-10T02:11:56.302Z,101978.63
2023-07-10T02:14:23.113Z,101981.38
2023-07-10T02:16:50.029Z,101983.28
2023-07-10T02:19:17.446Z,101981.59
2023-07-10T02:21:43.834Z,101989.66
2023-07-10T02:24:10.506Z,101978.09
2023-07-10T02:26:36.839Z,101990.59
2023-07-10T02:29:03.891Z,101972.06
2023-07-10T02:31:30.514Z,101981.78
2023-07-10T02:33:57.065Z,101985.38
2023-07-10T02:36:23.823Z,101981.03
2023-07-10T02:38:50.484Z,101978.44
2023-07-10T02:41:16.914Z,101980.31
2023-07-10T02:43:43.273Z,101975.03
2023-07-10T02:46:09.662Z,101975.09
2023-07-10T02:48:36.067Z,101982.25
2023-07-10T02:51:02.524Z,101983.19
2023-07-10T02:53:28.920Z,101983.19
2023-07-10T02:55:55.308Z,101979.66
2023-07-10T02:58:21.651Z,101972.59
2023-07-10T03:00:58.410Z,101976.22
2023-07-10T03:03:25.375Z,101978.00
2023-07-10T03:05:56.135Z,101970.94
2023-07-10T03:08:22.756Z,101978.06
2023-07-10T03:10:49.210Z,101979.94
2023-07-10T03:13:15.552Z,101985.28
2023-07-10T03:15:41.968Z,101992.44
2023-07-10T03:18:08.370Z,101991.63
2023-07-10T03:20:34.720Z,101989.88
2023-07-10T03:23:01.115Z,101990.81
2023-07-10T03:25:27.431Z,101997.09
2023-07-10T03:27:53.923Z,101996.22
2023-07-10T03:30:20.462Z,102002.50
2023-07-10T03:32:46.951Z,101999.00
2023-07-10T03:35:13.476Z,102003.50
2023-07-10T03:37:39.843Z,101998.25
2023-07-10T03:40:06.699Z,102001.88
2023-07-10T03:42:33.049Z,102008.13
2023-07-10T03:44:59.580Z,102009.00
2023-07-10T03:47:25.912Z,102012.53
2023-07-10T03:49:52.521Z,102018.81
2023-07-10T03:52:18.820Z,102010.81
2023-07-10T03:54:45.249Z,102019.75
2023-07-10T03:57:11.579Z,102018.00
2023-07-10T03:59:40.086Z,102010.91
2023-07-10T04:02:06.493Z,102020.69
2023-07-10T04:04:32.906Z,102021.59
2023-07-10T04:06:59.292Z,102027.88
2023-07-10T04:09:25.658Z,102027.00
2023-07-10T04:11:55.014Z,102033.22
2023-07-10T04:14:21.476Z,102028.78
2023-07-10T04:16:50.426Z,102027.88
2023-07-10T04:19:16.880Z,102040.44
2023-07-10T04:21:45.478Z,102043.22
2023-07-10T04:24:11.975Z,102038.84
2023-07-10T04:26:38.347Z,102046.97
2023-07-10T04:29:05.673Z,102046.09
2023-07-10T04:31:32.477Z,102051.44
2023-07-10T04:33:59.392Z,102046.97
2023-07-10T04:36:26.188Z,102051.47
2023-07-10T04:38:52.806Z,102062.16
2023-07-10T04:41:22.241Z,102055.03
2023-07-10T04:43:49.036Z,102055.91
2023-07-10T04:46:16.542Z,102049.66
2023-07-10T04:48:44.173Z,102049.59
2023-07-10T04:51:12.124Z,102051.38
2023-07-10T04:53:38.726Z,102050.44
2023-07-10T04:56:06.600Z,102055.75
2023-07-10T04:58:53.554Z,102066.38
2023-07-10T05:01:21.196Z,102051.22
2023-07-10T05:03:47.625Z,102052.06
2023-07-10T05:06:14.289Z,102042.19
2023-07-10T05:08:40.691Z,102043.06
2023-07-10T05:11:07.211Z,102045.69
2023-07-10T05:13:33.706Z,102043.88
2023-07-10T05:16:00.892Z,102044.69
2023-07-10T05:18:28.048Z,102050.84
2023-07-10T05:20:54.570Z,102056.13
2023-07-10T05:23:21.007Z,102052.50
2023-07-10T05:25:56.176Z,102047.09
2023-07-10T05:28:22.712Z,102050.56
2023-07-10T05:30:49.069Z,102049.59
2023-07-10T05:33:18.347Z,102045.06
2023-07-10T05:35:51.832Z,102048.53
2023-07-10T05:38:18.215Z,102049.34
2023-07-10T05:40:44.613Z,102045.72
2023-07-10T05:43:11.057Z,102046.59
2023-07-10T05:45:37.456Z,102044.75
2023-07-10T05:48:03.933Z,102041.94
2023-07-10T05:50:30.307Z,102053.41
2023-07-10T05:52:56.675Z,102055.91
2023-07-10T05:55:23.218Z,102049.53
2023-07-10T05:57:49.597Z,102053.75
2023-07-10T06:00:16.296Z,102059.78
2023-07-10T06:02:42.673Z,102051.59
2023-07-10T06:05:09.186Z,102047.72
2023-07-10T06:07:35.556Z,102053.69
2023-07-10T06:10:02.097Z,102052.34
2023-07-10T06:12:28.489Z,102053.50
2023-07-10T06:14:54.886Z,102054.66
2023-07-10T06:17:21.230Z,102052.22
2023-07-10T06:19:47.573Z,102060.66
2023-07-10T06:22:14.127Z,102067.19
2023-07-10T06:24:40.803Z,102084.28
2023-07-10T06:27:07.724Z,102065.75
2023-07-10T06:29:37.500Z,102076.94
2023-07-10T06:32:04.506Z,102076.31
2023-07-10T06:34:30.914Z,102075.81
2023-07-10T06:36:57.293Z,102074.41
2023-07-10T06:39:27.372Z,102071.19
2023-07-10T06:41:54.878Z,102077.00
2023-07-10T06:44:21.762Z,102078.13
2023-07-10T06:46:48.190Z,102085.81
2023-07-10T06:49:14.609Z,102089.00
2023-07-10T06:51:40.999Z,102089.84
2023-07-10T06:54:07.497Z,102095.13
2023-07-10T06:56:34.080Z,102085.16
2023-07-10T06:59:00.566Z,102082.84
2023-07-10T07:01:26.999Z,102086.44
2023-07-10T07:03:53.454Z,102097.06
2023-07-10T07:06:19.907Z,102093.88
2023-07-10T07:08:50.295Z,102099.06
2023-07-10T07:11:16.652Z,102100.44
2023-07-10T07:13:43.013Z,102099.25
2023-07-10T07:16:10.072Z,102099.88
2023-07-10T07:18:36.572Z,102106.38
2023-07-10T07:21:04.641Z,102101.16
2023-07-10T07:23:31.071Z,102097.81
2023-07-10T07:25:57.797Z,102107.19
2023-07-10T07:28:24.370Z,102095.84
2023-07-10T07:30:50.812Z,102099.94
2023-07-10T07:33:18.178Z,102104.84
2023-07-10T07:35:44.632Z,102095.53
2023-07-10T07:38:10.977Z,102095.97
2023-07-10T07:40:37.540Z,102102.47
2023-07-10T07:43:04.046Z,102103.97
2023-07-10T07:45:30.654Z,102102.09
2023-07-10T07:47:57.141Z,102107.72
2023-07-10T07:50:23.657Z,102102.59
2023-07-10T07:52:50.078Z,102094.91
2023-07-10T07:55:16.482Z,102096.44
2023-07-10T07:57:43.397Z,102094.53
2023-07-10T08:00:11.245Z,102091.28
2023-07-10T08:02:37.646Z,102096.09
2023-07-10T08:05:08.742Z,102098.16
2023-07-10T08:07:37.607Z,102102.84
2023-07-10T08:10:05.104Z,102093.03
2023-07-10T08:12:31.489Z,102108.66
2023-07-10T08:14:57.907Z,102100.94
2023-07-10T08:17:27.151Z,102103.47
2023-07-10T08:19:53.760Z,102096.03
2023-07-10T08:22:20.293Z,102098.25
2023-07-10T08:24:46.677Z,102096.38
2023-07-10T08:27:13.049Z,102091.78
2023-07-10T08:29:39.515Z,102094.56
2023-07-10T08:32:06.294Z,102095.91
2023-07-10T08:34:32.681Z,102098.22
2023-07-10T08:37:00.256Z,102104.28
2023-07-10T08:39:26.842Z,102098.38
2023-07-10T08:41:55.245Z,102100.19
2023-07-10T08:44:27.233Z,102097.78
2023-07-10T08:46:53.727Z,102094.81
2023-07-10T08:49:22.997Z,102102.44
2023-07-10T08:51:49.348Z,102103.63
2023-07-10T08:54:19.565Z,102094.94
2023-07-10T08:56:55.044Z,102101.56
2023-07-10T08:59:27.420Z,102103.94
2023-07-10T09:01:55.272Z,102105.75
2023-07-10T09:04:22.545Z,102107.78
2023-07-10T09:06:51.040Z,102106.09
2023-07-10T09:09:46.930Z,102102.72
2023-07-10T09:12:16.105Z,102107.00
2023-07-10T09:14:47.229Z,102108.53
2023-07-10T09:17:20.539Z,102117.56
2023-07-10T09:19:50.145Z,102120.78
2023-07-10T09:22:16.573Z,102123.06
2023-07-10T09:24:43.012Z,102122.97
2023-07-10T09:27:13.749Z,102121.22
2023-07-10T09:29:40.159Z,102115.69
2023-07-10T09:32:12.090Z,102123.09
2023-07-10T09:34:42.020Z,102122.78
2023-07-10T09:37:12.051Z,102131.13
2023-07-10T09:39:38.617Z,102131.22
2023-07-10T09:42:05.861Z,102125.81
2023-07-10T09:44:40.403Z,102130.09
2023-07-10T09:47:11.500Z,102132.56
2023-07-10T09:49:43.022Z,102122.75
2023-07-10T09:52:30.533Z,102119.25
2023-07-10T09:55:09.438Z,102116.19
2023-07-10T09:57:50.872Z,102112.75
2023-07-10T10:00:18.330Z,102117.97
2023-07-10T10:02:49.226Z,102118.91
2023-07-10T10:05:17.620Z,102109.84
2023-07-10T10:07:51.354Z,102108.91
2023-07-10T10:10:31.594Z,102114.25
2023-07-10T10:13:02.303Z,102118.75
2023-07-10T10:15:47.103Z,102122.69
2023-07-10T10:18:19.335Z,102120.31
2023-07-10T10:20:46.724Z,102112.69
2023-07-10T10:23:29.405Z,102112.53
2023-07-10T10:25:59.288Z,102108.63
2023-07-10T10:28:31.052Z,102111.75
2023-07-10T10:31:03.071Z,102114.22
2023-07-10T10:33:39.152Z,102112.56
2023-07-10T10:36:22.698Z,102107.06
2023-07-10T10:38:51.829Z,102106.06
2023-07-10T10:41:21.322Z,102119.69
2023-07-10T10:43:50.710Z,102109.91
2023-07-10T10:46:33.864Z,102101.66
2023-07-10T10:49:19.036Z,102103.78
2023-07-10T10:51:55.212Z,102112.41
2023-07-10T10:54:33.745Z,102122.38
2023-07-10T10:57:13.074Z,102121.75
2023-07-10T11:00:08.576Z,102114.16
2023-07-10T11:02:54.910Z,102113.63
2023-07-10T11:05:21.605Z,102118.56
2023-07-10T11:07:51.603Z,102120.44
2023-07-10T11:10:23.112Z,102116.63
2023-07-10T11:12:49.602Z,102109.22
2023-07-10T11:15:17.356Z,102111.84
2023-07-10T11:17:45.389Z,102104.84
2023-07-10T11:20:14.774Z,102100.81
2023-07-10T11:22:49.172Z,102098.72
2023-07-10T11:25:29.111Z,102100.63
2023-07-10T11:27:55.504Z,102107.53
2023-07-10T11:30:30.808Z,102121.44
2023-07-10T11:33:05.987Z,102114.75
2023-07-10T11:35:33.503Z,102106.59
2023-07-10T11:38:02.640Z,102107.50
2023-07-10T11:40:29.098Z,102105.06
2023-07-10T11:42:56.016Z,102096.81
2023-07-10T11:45:32.523Z,102108.63
2023-07-10T11:47:59.035Z,102089.84
2023-07-10T11:50:26.893Z,102098.06
2023-07-10T11:53:07.445Z,102089.63
2023-07-10T11:55:41.927Z,102087.78
2023-07-10T11:58:29.760Z,102090.97
2023-07-10T12:01:05.527Z,102100.13
2023-07-10T12:03:38.521Z,102095.25
2023-07-10T12:06:14.608Z,102092.72
2023-07-10T12:08:41.100Z,102093.22
2023-07-10T12:11:25.489Z,102099.53
2023-07-10T12:13:51.998Z,102091.81
2023-07-10T12:16:26.839Z,102090.06
2023-07-10T12:19:04.397Z,102095.97
2023-07-10T12:21:31.646Z,102090.84
2023-07-10T12:24:02.270Z,102093.44
2023-07-10T12:27:14.851Z,102097.16
2023-07-10T12:29:15.797Z,102097.19
2023-07-10T12:31:42.991Z,102084.47
2023-07-10T12:34:18.212Z,102091.50
2023-07-10T12:36:44.814Z,102084.31
2023-07-10T12:39:11.802Z,102090.41
2023-07-10T12:41:39.225Z,102080.91
2023-07-10T12:44:08.503Z,102075.09
2023-07-10T12:46:36.116Z,102075.78
2023-07-10T12:49:03.285Z,102072.97
2023-07-10T12:51:32.456Z,102068.97
2023-07-10T12:54:00.802Z,102085.38
2023-07-10T12:56:29.038Z,102082.59
2023-07-10T12:58:57.140Z,102076.81
2023-07-10T13:01:30.428Z,102070.94
2023-07-10T13:04:18.730Z,102080.28
2023-07-10T13:06:45.430Z,102071.19
2023-07-10T13:09:20.288Z,102072.41
2023-07-10T13:11:46.695Z,102070.97
2023-07-10T13:14:27.419Z,102075.72
2023-07-10T13:16:55.615Z,102067.59
2023-07-10T13:19:22.056Z,102069.22
2023-07-10T13:21:48.692Z,102071.75
2023-07-10T13:24:15.136Z,102083.53
2023-07-10T13:26:44.169Z,102072.53
2023-07-10T13:29:12.043Z,102058.16
2023-07-10T13:31:38.450Z,102058.34
2023-07-10T13:34:04.940Z,102072.22
2023-07-10T13:36:31.292Z,102054.19
2023-07-10T13:38:57.634Z,102062.91
2023-07-10T13:41:25.003Z,102063.78
2023-07-10T13:43:53.884Z,102060.00
2023-07-10T13:46:25.117Z,102053.50
2023-07-10T13:48:52.479Z,102055.47
2023-07-10T13:51:19.693Z,102053.03
2023-07-10T13:53:46.125Z,102049.31
2023-07-10T13:56:14.085Z,102053.59
2023-07-10T13:58:40.509Z,102051.66
2023-07-10T14:01:06.945Z,102057.03
2023-07-10T14:03:36.661Z,102057.44
2023-07-10T14:06:05.188Z,102051.78
2023-07-10T14:08:31.812Z,102047.63
2023-07-10T14:10:59.073Z,102045.28
2023-07-10T14:13:26.150Z,102041.78
2023-07-10T14:15:55.033Z,102046.00
2023-07-10T14:18:26.576Z,102040.78
2023-07-10T14:20:53.073Z,102039.84
2023-07-10T14:23:20.987Z,102038.38
2023-07-10T14:25:47.728Z,102007.50
2023-07-10T14:28:15.301Z,102031.13
2023-07-10T14:30:43.927Z,102038.72
2023-07-10T14:33:11.232Z,102031.56
2023-07-10T14:35:38.464Z,102025.28
2023-07-10T14:38:34.168Z,102021.84
2023-07-10T14:41:00.532Z,102032.09
2023-07-10T14:43:27.539Z,102029.41
2023-07-10T14:45:56.253Z,102021.31
2023-07-10T14:48:25.125Z,102028.59
2023-07-10T14:50:51.784Z,102033.28
2023-07-10T14:53:19.844Z,102034.94
2023-07-10T14:55:48.088Z,102033.44
2023-07-10T14:58:19.232Z,102026.63
2023-07-10T15:00:49.323Z,102016.25
2023-07-10T15:03:16.270Z,102020.44
2023-07-10T15:05:47.757Z,102027.94
2023-07-10T15:08:23.256Z,102021.66
2023-07-10T15:10:49.703Z,102024.47
2023-07-10T15:13:17.583Z,102019.75
2023-07-10T15:15:44.101Z,102022.50
2023-07-10T15:18:14.445Z,102015.44
2023-07-10T15:20:42.230Z,102009.25
2023-07-10T15:23:22.108Z,101998.47
2023-07-10T15:25:49.041Z,101999.88
2023-07-10T15:28:15.765Z,101996.59
2023-07-10T15:30:42.237Z,101986.13
2023-07-10T15:33:12.566Z,101984.88
2023-07-10T15:35:39.107Z,101981.59
2023-07-10T15:38:06.647Z,101980.16
2023-07-10T15:40:35.011Z,101978.38
2023-07-10T15:43:02.018Z,101982.00
2023-07-10T15:45:32.556Z,101977.44
2023-07-10T15:48:00.061Z,101980.22
2023-07-10T15:50:27.377Z,101981.53
2023-07-10T15:52:54.491Z,101978.31
2023-07-10T15:55:28.160Z,101977.38
2023-07-10T15:57:55.505Z,101974.25
2023-07-10T16:00:23.165Z,101966.53
2023-07-10T16:02:50.343Z,101964.63
2023-07-10T16:05:21.894Z,101959.06
2023-07-10T16:07:49.170Z,101959.94
2023-07-10T16:10:15.700Z,101950.94
2023-07-10T16:12:42.893Z,101954.63
2023-07-10T16:15:16.424Z,101944.66
2023-07-10T16:17:45.550Z,101952.72
2023-07-10T16:20:19.870Z,101942.59
2023-07-10T16:23:05.823Z,101944.50
2023-07-10T16:25:32.607Z,101949.91
2023-07-10T16:27:58.980Z,101937.09
2023-07-10T16:30:26.381Z,101925.50
2023-07-10T16:32:53.068Z,101923.72
2023-07-10T16:35:20.798Z,101932.97
2023-07-10T16:37:47.395Z,101931.72
2023-07-10T16:40:24.532Z,101932.75
2023-07-10T16:42:53.059Z,101928.38
2023-07-10T16:45:19.465Z,101916.88
2023-07-10T16:47:46.090Z,101919.59
2023-07-10T16:50:17.800Z,101918.50
2023-07-10T16:52:45.065Z,101911.78
2023-07-10T16:55:29.507Z,101920.84
2023-07-10T16:57:58.978Z,101916.72
2023-07-10T17:00:29.969Z,101910.69
2023-07-10T17:02:58.239Z,101914.16
2023-07-10T17:05:25.140Z,101910.56
2023-07-10T17:07:51.535Z,101910.75
2023-07-10T17:10:18.238Z,101907.50
2023-07-10T17:12:45.520Z,101911.88
2023-07-10T17:15:15.355Z,101898.47
2023-07-10T17:17:42.173Z,101908.59
2023-07-10T17:20:13.460Z,101913.28
2023-07-10T17:22:39.953Z,101894.25
2023-07-10T17:25:17.229Z,101900.69
2023-07-10T17:27:44.256Z,101893.50
2023-07-10T17:30:14.704Z,101892.44
2023-07-10T17:32:41.383Z,101888.47
2023-07-10T17:35:14.986Z,101889.00
2023-07-10T17:37:43.959Z,101892.75
2023-07-10T17:40:14.728Z,101887.69
2023-07-10T17:42:41.736Z,101886.06
2023-07-10T17:45:15.442Z,101875.97
2023-07-10T17:47:41.925Z,101878.56
2023-07-10T17:50:11.876Z,101872.06
2023-07-10T17:52:38.196Z,101885.56
2023-07-10T17:55:04.787Z,101875.63
2023-07-10T17:57:31.214Z,101886.50
2023-07-10T17:59:57.776Z,101880.34
2023-07-10T18:02:28.354Z,101883.16
2023-07-10T18:04:54.715Z,101883.22
2023-07-10T18:07:21.178Z,101877.91
2023-07-10T18:09:47.578Z,101880.16
2023-07-10T18:12:15.838Z,101878.56
2023-07-10T18:14:43.036Z,101871.41
2023-07-10T18:17:14.063Z,101878.81
2023-07-10T18:19:42.262Z,101887.06
2023-07-10T18:22:11.837Z,101874.34
2023-07-10T18:24:38.159Z,101877.13
2023-07-10T18:27:05.003Z,101871.06
2023-07-10T18:29:31.482Z,101873.13
2023-07-10T18:31:58.031Z,101868.94
2023-07-10T18:34:24.550Z,101869.25
2023-07-10T18:36:51.252Z,101863.13
2023-07-10T18:39:17.774Z,101870.34
2023-07-10T18:41:44.426Z,101865.03
2023-07-10T18:44:14.739Z,101864.28
2023-07-10T18:46:41.399Z,101864.47
2023-07-10T18:49:16.452Z,101867.34
2023-07-10T18:51:43.608Z,101860.16
2023-07-10T18:54:12.772Z,101866.56
2023-07-10T18:56:39.696Z,101856.81
2023-07-10T18:59:14.704Z,101853.59
2023-07-10T19:01:42.706Z,101845.13
2023-07-10T19:04:11.822Z,101857.09
2023-07-10T19:06:41.467Z,101851.16
2023-07-10T19:09:20.783Z,101842.66
2023-07-10T19:11:48.349Z,101839.34
2023-07-10T19:14:16.181Z,101837.88
2023-07-10T19:16:43.092Z,101832.81
2023-07-10T19:19:15.016Z,101840.31
2023-07-10T19:21:41.733Z,101838.75
2023-07-10T19:24:28.452Z,101832.88
2023-07-10T19:26:55.027Z,101831.56
2023-07-10T19:29:21.792Z,101824.72
2023-07-10T19:31:59.029Z,101833.13
2023-07-10T19:34:25.991Z,101834.38
2023-07-10T19:36:52.732Z,101828.41
2023-07-10T19:39:20.390Z,101831.47
2023-07-10T19:41:47.352Z,101826.28
2023-07-10T19:44:16.208Z,101821.13
2023-07-10T19:46:42.833Z,101819.59
2023-07-10T19:49:13.346Z,101817.16
2023-07-10T19:51:39.977Z,101818.34
2023-07-10T19:54:19.429Z,101819.47
2023-07-10T19:56:46.104Z,101814.25
2023-07-10T19:59:20.816Z,101818.97
2023-07-10T20:01:51.194Z,101811.09
2023-07-10T20:04:17.753Z,101799.69
2023-07-10T20:06:45.598Z,101797.13
2023-07-10T20:09:16.800Z,101799.97
2023-07-10T20:11:43.616Z,101790.28
2023-07-10T20:14:14.257Z,101790.50
2023-07-10T20:16:40.966Z,101789.75
2023-07-10T20:19:20.960Z,101788.19
2023-07-10T20:21:48.610Z,101780.41
2023-07-10T20:24:16.142Z,101782.34
2023-07-10T20:26:43.122Z,101778.88
2023-07-10T20:29:12.811Z,101777.19
2023-07-10T20:31:39.289Z,101782.56
2023-07-10T20:34:11.581Z,101774.88
2023-07-10T20:36:38.962Z,101788.25
2023-07-10T20:39:10.871Z,101783.91
2023-07-10T20:41:38.362Z,101784.97
2023-07-10T20:44:19.325Z,101789.66
2023-07-10T20:46:48.783Z,101788.81
2023-07-10T20:49:17.051Z,101790.63
2023-07-10T20:51:43.527Z,101788.81
2023-07-10T20:54:11.164Z,101788.97
2023-07-10T20:56:37.718Z,101780.13
2023-07-10T20:59:06.070Z,101773.03
2023-07-10T21:01:32.582Z,101765.97
2023-07-10T21:03:59.046Z,101770.44
2023-07-10T21:06:34.416Z,101767.00
2023-07-10T21:09:01.583Z,101761.00
2023-07-10T21:11:32.088Z,101759.28
2023-07-10T21:13:59.217Z,101766.53
2023-07-10T21:16:28.538Z,101768.50
2023-07-10T21:18:54.950Z,101767.63
2023-07-10T21:21:21.406Z,101763.22
2023-07-10T21:23:48.448Z,101759.03
2023-07-10T21:26:17.417Z,101756.44
2023-07-10T21:28:52.510Z,101764.63
2023-07-10T21:31:23.802Z,101759.34
2023-07-10T21:33:52.389Z,101763.13
2023-07-10T21:36:19.204Z,101759.81
2023-07-10T21:38:45.942Z,101762.50
2023-07-10T21:41:16.808Z,101765.34
2023-07-10T21:43:44.138Z,101770.81
2023-07-10T21:46:12.567Z,101765.56
2023-07-10T21:48:39.090Z,101763.00
2023-07-10T21:51:07.166Z,101761.31
2023-07-10T21:53:33.578Z,101769.66
2023-07-10T21:56:02.500Z,101760.78
2023-07-10T21:58:42.267Z,101759.03
2023-07-10T22:01:12.684Z,101760.16
2023-07-10T22:03:40.536Z,101757.53
2023-07-10T22:06:09.255Z,101757.50
2023-07-10T22:08:36.665Z,101760.22
2023-07-10T22:11:04.070Z,101754.84
2023-07-10T22:13:31.748Z,101746.81
2023-07-10T22:16:00.274Z,101746.06
2023-07-10T22:18:33.850Z,101752.50
2023-07-10T22:21:00.659Z,101728.91
2023-07-10T22:23:28.415Z,101743.88
2023-07-10T22:25:55.369Z,101740.31
2023-07-10T22:28:24.501Z,101747.50
2023-07-10T22:30:51.806Z,101748.47
2023-07-10T22:33:19.070Z,101734.19
2023-07-10T22:35:46.336Z,101747.69
2023-07-10T22:38:14.712Z,101741.50
2023-07-10T22:40:41.902Z,101734.41
2023-07-10T22:43:13.077Z,101729.16
2023-07-10T22:45:39.969Z,101729.47
2023-07-10T22:48:12.985Z,101736.69
2023-07-10T22:50:42.591Z,101732.38
2023-07-10T22:53:09.371Z,101720.91
2023-07-10T22:55:36.314Z,101723.69
2023-07-10T22:58:02.771Z,101709.44
2023-07-10T23:00:30.488Z,101707.78
2023-07-10T23:02:56.885Z,101706.16
2023-07-10T23:05:25.700Z,101700.91
2023-07-10T23:07:52.144Z,101697.47
2023-07-10T23:10:20.033Z,101696.69
2023-07-10T23:12:46.851Z,101696.84
2023-07-10T23:15:14.096Z,101689.75
2023-07-10T23:17:41.214Z,101688.06
2023-07-10T23:20:09.166Z,101670.22
2023-07-10T23:22:35.602Z,101678.41
2023-07-10T23:25:07.448Z,101675.03
2023-07-10T23:27:34.205Z,101678.63
2023-07-10T23:30:00.701Z,101684.06
2023-07-10T23:32:33.752Z,101684.13
2023-07-10T23:35:00.681Z,101676.97
2023-07-10T23:37:27.989Z,101677.84
2023-07-10T23:39:55.160Z,101679.69
2023-07-10T23:42:22.212Z,101673.53
2023-07-10T23:44:48.642Z,101671.91
2023-07-10T23:47:15.113Z,101661.41
2023-07-10T23:49:41.549Z,101656.06
2023-07-10T23:52:08.013Z,101657.81
2023-07-10T23:54:34.433Z,101656.94
2023-07-10T23:57:11.697Z,101655.13
2023-07-10T23:59:38.606Z,101659.69
